Time;durP1;ratioP1;P1;durP2;ratioP2;P2;SDS_P1;SDS_P2;PMS_P1;PMS_P2;Temp;Humidity;BMP_temperature;BMP_pressure;BME280_temperature;BME280_humidity;BME280_pressure;Samples;Min_cycle;Max_cycle;Signal;HPM_P1;HPM_P2
2023/02/25 10:11:53;;;;;;;10.10;9.70;;;11.70;72.20;;;;;;5107069;27;20356;-84
2023/02/25 10:14:37;;;;;;;10.10;9.70;;;10.90;72.30;;;;;;5107195;28;20441;-83
2023/02/25 10:17:12;;;;;;;9.40;9.00;;;10.40;73.40;;;;;;5106913;28;20510;-84
2023/02/25 10:20:02;;;;;;;10.17;9.67;;;10.00;73.90;;;;;;5107220;28;20445;-84
2023/02/25 10:22:45;;;;;;;10.40;9.40;;;9.60;75.30;;;;;;5106924;28;20603;-85
2023/02/25 10:25:15;;;;;;;9.90;9.50;;;9.40;76.70;;;;;;5107055;28;20473;-84
2023/02/25 10:27:50;;;;;;;9.90;9.50;;;9.40;77.70;;;;;;5106656;28;20453;-83
2023/02/25 10:30:23;;;;;;;8.90;8.50;;;9.50;79.10;;;;;;5106816;28;20484;-84
2023/02/25 10:32:51;;;;;;;8.90;8.50;;;9.40;78.90;;;;;;5106774;28;20854;-84
2023/02/25 10:35:22;;;;;;;9.40;9.00;;;9.30;80.70;;;;;;5106606;28;20500;-84
2023/02/25 10:37:49;;;;;;;10.93;9.90;;;9.30;81.40;;;;;;5106770;28;20438;-83
2023/02/25 10:40:18;;;;;;;8.93;8.50;;;9.40;81.30;;;;;;5106748;28;20703;-83
2023/02/25 10:42:48;;;;;;;9.70;9.30;;;9.50;80.60;;;;;;5106515;28;20637;-83
2023/02/25 10:45:21;;;;;;;8.67;8.37;;;9.70;82.10;;;;;;5106560;28;20441;-84
2023/02/25 10:47:55;;;;;;;9.53;9.03;;;10.00;79.40;;;;;;5106132;28;20507;-83
2023/02/25 10:50:24;;;;;;;10.53;9.33;;;9.90;78.80;;;;;;5106445;28;20570;-84
2023/02/25 10:52:57;;;;;;;9.17;8.87;;;9.80;79.50;;;;;;5106222;28;20495;-84
2023/02/25 10:55:50;;;;;;;9.20;8.80;;;9.70;78.10;;;;;;5106813;28;20452;-85
2023/02/25 10:58:25;;;;;;;9.17;8.80;;;9.30;78.80;;;;;;5106257;28;20867;-83
2023/02/25 11:01:00;;;;;;;8.80;8.37;;;9.20;79.90;;;;;;5106423;28;20548;-83
2023/02/25 11:03:30;;;;;;;9.70;9.30;;;9.10;80.20;;;;;;5106210;28;20808;-84
2023/02/25 11:06:13;;;;;;;9.57;8.97;;;9.10;80.60;;;;;;5105815;28;20460;-84
2023/02/25 11:08:40;;;;;;;9.90;9.07;;;9.20;82.50;;;;;;5106052;28;20473;-83
2023/02/25 11:11:16;;;;;;;10.50;10.10;;;9.10;81.50;;;;;;5101483;28;20577;-83
2023/02/25 11:13:52;;;;;;;9.10;8.70;;;9.10;82.40;;;;;;5092332;28;20481;-83
2023/02/25 11:16:19;;;;;;;9.80;9.30;;;9.30;82.50;;;;;;5092176;28;20769;-82
2023/02/25 11:18:52;;;;;;;9.90;9.40;;;9.10;82.30;;;;;;5091974;28;20519;-84
2023/02/25 11:21:30;;;;;;;8.90;8.50;;;9.10;81.80;;;;;;5092328;28;20442;-84
2023/02/25 11:24:01;;;;;;;9.90;9.33;;;9.50;80.40;;;;;;5092417;28;20450;-84
2023/02/25 11:26:31;;;;;;;10.67;10.27;;;9.90;78.70;;;;;;5092225;28;20537;-83
2023/02/25 11:29:02;;;;;;;9.83;9.30;;;10.30;75.60;;;;;;5091966;28;20454;-84
2023/02/25 11:31:34;;;;;;;8.80;8.47;;;10.50;76.30;;;;;;5091838;28;20745;-85
2023/02/25 11:34:04;;;;;;;10.13;9.63;;;10.70;75.90;;;;;;5091867;28;20446;-83
2023/02/25 11:36:33;;;;;;;9.30;8.80;;;10.40;76.30;;;;;;5091862;28;20594;-83
2023/02/25 11:39:07;;;;;;;9.80;9.40;;;10.40;76.40;;;;;;5092067;28;20447;-84
2023/02/25 11:41:34;;;;;;;9.23;8.93;;;9.90;79.60;;;;;;5091921;28;20442;-83
2023/02/25 11:44:25;;;;;;;10.10;9.70;;;9.70;81.40;;;;;;5091673;28;20453;-82
2023/02/25 11:46:59;;;;;;;10.60;10.10;;;9.30;82.40;;;;;;5092161;28;20454;-82
2023/02/25 11:49:49;;;;;;;8.60;8.20;;;8.80;83.80;;;;;;5091395;28;20477;-82
2023/02/25 11:52:24;;;;;;;9.73;8.90;;;8.70;86.00;;;;;;5091532;28;20936;-82
2023/02/25 11:55:03;;;;;;;10.43;9.83;;;8.60;87.50;;;;;;5091929;28;20454;-82
2023/02/25 11:57:39;;;;;;;9.33;8.93;;;8.60;87.30;;;;;;5091574;28;20458;-83
2023/02/25 12:00:24;;;;;;;10.93;9.53;;;8.60;87.10;;;;;;5091710;28;20868;-82
2023/02/25 12:03:03;;;;;;;10.80;10.07;;;8.60;86.90;;;;;;5091505;28;20480;-82
2023/02/25 12:05:51;;;;;;;10.20;9.70;;;8.80;87.50;;;;;;5091495;28;20478;-82
2023/02/25 12:08:50;;;;;;;10.30;9.80;;;8.90;87.90;;;;;;5080997;28;20527;-82
2023/02/25 12:11:41;;;;;;;9.30;8.87;;;9.10;87.00;;;;;;5091341;28;20490;-83
2023/02/25 12:14:34;;;;;;;11.07;10.40;;;9.30;86.10;;;;;;5091603;28;20472;-83
2023/02/25 12:17:29;;;;;;;10.30;9.90;;;9.20;85.30;;;;;;5091147;28;20670;-82
2023/02/25 12:20:33;;;;;;;9.73;9.33;;;9.10;86.10;;;;;;5091546;28;20789;-82
2023/02/25 12:23:24;;;;;;;9.07;8.47;;;9.00;85.80;;;;;;5053421;28;20462;-82
2023/02/25 12:25:59;;;;;;;10.47;9.97;;;8.70;86.70;;;;;;5091481;28;20941;-82
2023/02/25 12:28:44;;;;;;;10.73;10.33;;;8.60;88.40;;;;;;5091103;28;20437;-82
2023/02/25 12:32:02;;;;;;;11.30;10.60;;;8.60;89.20;;;;;;5091442;28;20502;-82
2023/02/25 12:34:55;;;;;;;10.00;9.37;;;8.50;90.30;;;;;;5073815;28;20450;-82
2023/02/25 12:37:58;;;;;;;10.47;9.87;;;8.20;91.00;;;;;;5115102;28;20438;-81
2023/02/25 12:40:41;;;;;;;9.90;9.30;;;8.30;91.30;;;;;;5115588;28;20429;-81
2023/02/25 12:43:23;;;;;;;9.93;9.43;;;8.20;91.60;;;;;;5113749;28;20906;-81
2023/02/25 12:46:15;;;;;;;9.80;9.30;;;8.00;92.60;;;;;;5099356;28;20452;-81
2023/02/25 12:49:21;;;;;;;9.80;9.37;;;8.00;93.40;;;;;;5090748;28;20446;-81
2023/02/25 12:52:07;;;;;;;10.60;9.77;;;7.90;93.90;;;;;;5071971;28;20529;-79
2023/02/25 12:54:58;;;;;;;11.50;10.70;;;7.70;96.60;;;;;;5090497;28;20449;-77
2023/02/25 12:57:39;;;;;;;12.53;11.60;;;7.30;99.90;;;;;;5090278;28;20797;-75
2023/02/25 13:00:34;;;;;;;12.43;11.70;;;7.00;99.90;;;;;;5090316;28;20445;-75
2023/02/25 13:03:14;;;;;;;12.70;12.03;;;6.50;99.90;;;;;;5089922;28;20509;-76
2023/02/25 13:06:02;;;;;;;12.30;11.90;;;6.50;99.90;;;;;;5090282;28;20876;-76
2023/02/25 13:08:49;;;;;;;11.20;10.70;;;6.60;99.90;;;;;;5083105;28;21023;-78
2023/02/25 13:11:27;;;;;;;12.80;11.93;;;6.90;99.90;;;;;;5089913;28;20493;-80
2023/02/25 13:14:13;;;;;;;10.90;10.07;;;7.10;99.90;;;;;;5090181;28;20453;-79
2023/02/25 13:16:53;;;;;;;10.00;9.33;;;7.40;99.90;;;;;;5090116;28;20454;-78
2023/02/25 13:19:49;;;;;;;11.43;10.73;;;7.40;99.90;;;;;;5089956;28;20457;-78
2023/02/25 13:22:28;;;;;;;10.00;9.60;;;7.50;99.90;;;;;;5089927;28;20519;-77
2023/02/25 13:25:04;;;;;;;10.17;9.20;;;7.70;99.90;;;;;;5089774;28;20478;-77
2023/02/25 13:27:48;;;;;;;9.47;8.77;;;7.80;99.90;;;;;;5089663;28;20867;-77
2023/02/25 13:30:34;;;;;;;9.53;8.93;;;7.80;99.90;;;;;;5089406;28;20495;-77
2023/02/25 13:33:18;;;;;;;10.17;9.63;;;8.10;99.90;;;;;;5089122;28;20541;-77
2023/02/25 13:35:54;;;;;;;10.63;9.77;;;8.30;99.90;;;;;;5089246;28;20464;-77
2023/02/25 13:38:40;;;;;;;9.67;9.20;;;8.20;99.90;;;;;;5089831;28;20975;-78
2023/02/25 13:41:37;;;;;;;10.67;9.97;;;8.30;99.90;;;;;;5089948;28;20438;-78
2023/02/25 13:44:27;;;;;;;9.83;8.90;;;8.40;99.90;;;;;;5089699;28;20465;-78
2023/02/25 13:47:30;;;;;;;9.37;8.77;;;8.70;99.90;;;;;;5089741;28;20446;-78
2023/02/25 13:50:24;;;;;;;9.80;9.30;;;8.60;99.90;;;;;;5026774;28;20559;-80
2023/02/25 13:53:06;;;;;;;10.30;9.80;;;8.80;99.70;;;;;;5086915;28;20983;-80
2023/02/25 13:56:06;;;;;;;10.57;9.87;;;8.80;98.70;;;;;;5089586;28;20461;-82
2023/02/25 13:58:49;;;;;;;10.27;9.77;;;8.70;97.60;;;;;;5089400;28;20453;-83
2023/02/25 14:01:29;;;;;;;9.57;8.70;;;8.70;97.90;;;;;;5089289;28;20933;-82
2023/02/25 14:04:23;;;;;;;10.63;9.97;;;8.80;98.30;;;;;;5089309;28;20970;-82
2023/02/25 14:07:19;;;;;;;10.10;9.50;;;8.70;97.70;;;;;;5089463;28;20474;-82
2023/02/25 14:09:58;;;;;;;9.63;9.10;;;8.50;97.80;;;;;;5089299;28;20482;-82
2023/02/25 14:12:40;;;;;;;9.43;8.80;;;8.20;96.80;;;;;;5089437;28;20482;-82
2023/02/25 14:15:28;;;;;;;12.97;11.67;;;8.10;97.10;;;;;;5089596;28;20482;-83
2023/02/25 14:18:34;;;;;;;10.47;9.80;;;8.20;97.70;;;;;;5089424;28;20457;-82
2023/02/25 14:21:19;;;;;;;10.13;9.53;;;8.20;97.70;;;;;;5089141;28;20956;-82
2023/02/25 14:23:51;;;;;;;10.33;9.80;;;8.10;97.70;;;;;;5089328;28;20796;-83
2023/02/25 14:26:29;;;;;;;10.10;9.50;;;8.20;98.00;;;;;;5089349;28;20442;-82
2023/02/25 14:29:10;;;;;;;11.23;10.33;;;8.30;97.70;;;;;;5089294;28;20446;-83
2023/02/25 14:31:52;;;;;;;10.00;9.30;;;8.50;97.30;;;;;;5089356;28;20560;-83
2023/02/25 14:34:36;;;;;;;10.07;9.60;;;8.70;96.70;;;;;;5089493;28;20500;-83
2023/02/25 14:37:14;;;;;;;10.10;9.50;;;9.00;95.80;;;;;;5089137;28;20450;-83
2023/02/25 14:40:02;;;;;;;9.90;9.20;;;9.10;95.20;;;;;;5089058;28;20446;-82
2023/02/25 14:42:45;;;;;;;9.80;9.10;;;9.00;95.30;;;;;;5077937;28;20569;-83
2023/02/25 14:45:20;;;;;;;10.00;9.50;;;8.70;95.60;;;;;;5089220;28;20529;-83
2023/02/25 14:47:57;;;;;;;10.40;9.80;;;8.60;95.80;;;;;;5092495;28;20463;-83
2023/02/25 14:50:29;;;;;;;9.80;9.20;;;8.50;96.20;;;;;;5093153;28;20450;-85
2023/02/25 14:53:13;;;;;;;9.43;8.97;;;8.60;95.60;;;;;;5094288;28;20454;-86
2023/02/25 14:56:07;;;;;;;9.60;9.20;;;8.80;95.70;;;;;;5092953;28;20956;-84
2023/02/25 14:59:11;;;;;;;11.07;10.47;;;8.80;95.00;;;;;;5092551;28;20511;-84
2023/02/25 15:02:00;;;;;;;9.33;8.50;;;8.70;95.10;;;;;;5092935;28;20465;-85
2023/02/25 15:05:08;;;;;;;9.50;8.90;;;8.60;95.00;;;;;;5092797;28;20450;-85
2023/02/25 15:07:54;;;;;;;9.30;8.70;;;8.60;94.80;;;;;;5082249;28;20961;-84
2023/02/25 15:10:34;;;;;;;9.27;8.73;;;8.50;94.50;;;;;;5092745;28;20568;-84
2023/02/25 15:13:28;;;;;;;9.70;8.90;;;8.70;94.70;;;;;;5092648;28;20460;-84
2023/02/25 15:16:15;;;;;;;9.97;9.37;;;8.80;94.10;;;;;;5092481;28;20454;-83
2023/02/25 15:19:12;;;;;;;9.97;9.23;;;8.80;94.30;;;;;;5092558;28;20481;-83
2023/02/25 15:21:43;;;;;;;8.90;8.47;;;8.60;93.80;;;;;;5082327;28;20953;-82
2023/02/25 15:24:32;;;;;;;9.50;8.87;;;8.30;93.70;;;;;;5092597;28;20504;-82
2023/02/25 15:27:00;;;;;;;10.27;9.40;;;8.10;93.60;;;;;;5091879;28;20809;-82
2023/02/25 15:29:55;;;;;;;9.13;8.63;;;8.00;93.60;;;;;;5093249;28;20455;-82
2023/02/25 15:32:24;;;;;;;9.13;8.63;;;7.80;94.00;;;;;;5094374;28;20534;-82
2023/02/25 15:34:56;;;;;;;9.23;8.63;;;7.90;94.00;;;;;;5096182;28;20455;-82
2023/02/25 15:37:33;;;;;;;9.53;9.03;;;8.00;94.70;;;;;;5111032;28;20426;-82
2023/02/25 15:40:43;;;;;;;9.00;8.40;;;8.00;94.20;;;;;;5113856;28;20422;-81
2023/02/25 15:43:46;;;;;;;11.07;9.80;;;8.10;94.10;;;;;;5110881;28;20454;-81
2023/02/25 15:46:29;;;;;;;11.03;8.97;;;8.00;94.40;;;;;;5101375;28;20445;-81
2023/02/25 15:49:05;;;;;;;9.40;8.80;;;8.00;94.40;;;;;;5093116;28;20447;-81
2023/02/25 15:51:42;;;;;;;10.80;10.20;;;8.00;94.50;;;;;;5092240;28;20481;-82
2023/02/25 15:54:11;;;;;;;10.33;9.63;;;8.10;94.30;;;;;;5083618;28;20474;-82
2023/02/25 15:56:48;;;;;;;10.20;9.23;;;8.00;94.30;;;;;;5073098;28;20470;-82
2023/02/25 15:59:40;;;;;;;9.70;8.93;;;8.00;94.30;;;;;;5070953;28;20458;-82
2023/02/25 16:02:39;;;;;;;9.07;8.40;;;7.90;94.70;;;;;;5071284;28;21003;-83
2023/02/25 16:05:18;;;;;;;11.70;10.60;;;7.80;94.50;;;;;;5071210;28;20454;-82
2023/02/25 16:07:48;;;;;;;8.67;8.37;;;7.30;99.90;;;;;;5071002;28;20543;-81
2023/02/25 16:10:25;;;;;;;11.43;9.00;;;6.80;99.90;;;;;;5071067;28;20882;-81
2023/02/25 16:12:56;;;;;;;10.60;10.13;;;6.50;99.90;;;;;;5071106;28;20493;-81
2023/02/25 16:15:27;;;;;;;10.73;10.20;;;6.20;99.90;;;;;;5070888;28;20447;-81
2023/02/25 16:17:56;;;;;;;12.93;12.20;;;5.90;99.90;;;;;;5070940;28;20992;-80
2023/02/25 16:20:25;;;;;;;10.70;9.97;;;5.70;99.90;;;;;;5070870;28;20458;-81
2023/02/25 16:22:58;;;;;;;10.73;10.23;;;5.70;99.90;;;;;;5071096;28;20455;-81
2023/02/25 16:25:36;;;;;;;12.37;11.33;;;5.70;99.90;;;;;;5070668;28;20451;-78
2023/02/25 16:28:14;;;;;;;11.63;10.93;;;5.70;99.90;;;;;;5070530;28;20455;-79
2023/02/25 16:30:48;;;;;;;10.90;10.40;;;5.60;99.90;;;;;;5070569;28;20490;-81
2023/02/25 16:33:22;;;;;;;12.50;11.33;;;5.70;99.90;;;;;;5070579;28;20439;-81
2023/02/25 16:35:53;;;;;;;12.90;12.00;;;5.70;99.90;;;;;;5070134;28;20512;-81
2023/02/25 16:38:27;;;;;;;11.07;10.47;;;5.70;99.90;;;;;;5070273;28;20454;-81
2023/02/25 16:40:58;;;;;;;12.57;11.47;;;5.80;99.90;;;;;;5070686;28;20868;-82
2023/02/25 16:43:28;;;;;;;10.40;9.83;;;6.00;99.90;;;;;;5070575;28;20451;-81
2023/02/25 16:45:57;;;;;;;11.27;10.37;;;6.00;99.90;;;;;;5070364;28;20451;-81
2023/02/25 16:48:28;;;;;;;11.17;10.57;;;6.00;99.90;;;;;;5070355;28;20454;-81
2023/02/25 16:50:55;;;;;;;13.03;10.77;;;6.10;99.90;;;;;;5070218;28;20443;-82
2023/02/25 16:53:25;;;;;;;15.77;14.40;;;6.10;99.90;;;;;;5070373;28;20443;-82
2023/02/25 16:55:59;;;;;;;18.70;16.90;;;6.10;99.90;;;;;;5070272;28;20448;-82
2023/02/25 16:58:27;;;;;;;13.20;12.20;;;6.20;99.90;;;;;;5070324;28;20534;-82
2023/02/25 17:00:56;;;;;;;11.00;10.30;;;6.20;99.90;;;;;;5070252;28;20463;-81
2023/02/25 17:03:24;;;;;;;11.90;10.90;;;6.10;99.90;;;;;;5070020;28;20513;-82
2023/02/25 17:06:07;;;;;;;12.10;11.40;;;6.10;99.90;;;;;;5070089;28;20451;-81
2023/02/25 17:08:34;;;;;;;11.40;10.70;;;6.00;99.90;;;;;;5069121;28;20438;-81
2023/02/25 17:11:05;;;;;;;11.03;10.33;;;6.10;99.90;;;;;;5069296;28;20299;-81
2023/02/25 17:13:34;;;;;;;10.43;9.73;;;6.10;99.90;;;;;;5070189;28;20680;-82
2023/02/25 17:16:02;;;;;;;10.80;10.20;;;6.10;99.90;;;;;;5070133;28;20463;-82
2023/02/25 17:18:32;;;;;;;11.67;10.70;;;6.10;99.90;;;;;;5067770;28;20536;-82
2023/02/25 17:21:05;;;;;;;10.57;9.87;;;6.00;99.90;;;;;;5069241;28;20455;-82
2023/02/25 17:23:38;;;;;;;13.03;11.90;;;5.90;99.90;;;;;;5070405;28;20482;-82
2023/02/25 17:26:08;;;;;;;11.77;11.07;;;5.80;99.90;;;;;;5069910;28;20447;-82
2023/02/25 17:28:35;;;;;;;10.13;9.63;;;5.70;99.90;;;;;;5070181;28;20451;-81
2023/02/25 17:31:09;;;;;;;10.17;9.57;;;5.60;99.90;;;;;;5069825;28;20718;-81
2023/02/25 17:33:36;;;;;;;11.10;10.50;;;5.70;99.90;;;;;;5069521;28;20447;-82
2023/02/25 17:36:08;;;;;;;11.20;10.37;;;5.60;99.90;;;;;;5069229;28;20458;-81
2023/02/25 17:38:35;;;;;;;11.07;10.47;;;5.70;99.90;;;;;;5069683;28;21016;-78
2023/02/25 17:41:02;;;;;;;13.23;12.50;;;5.20;99.90;;;;;;5069370;28;20462;-77
2023/02/25 17:43:38;;;;;;;15.87;15.27;;;4.50;99.90;;;;;;5069304;28;20451;-77
2023/02/25 17:46:17;;;;;;;19.93;18.60;;;3.90;99.90;;;;;;5069547;28;20866;-74
2023/02/25 17:48:50;;;;;;;21.37;20.17;;;3.60;99.90;;;;;;5069194;28;20451;-73
2023/02/25 17:51:17;;;;;;;27.23;25.93;;;3.30;99.90;;;;;;5068789;28;21008;-73
2023/02/25 17:53:47;;;;;;;28.23;26.73;;;3.20;99.90;;;;;;5068970;28;20505;-74
2023/02/25 17:56:21;;;;;;;30.10;28.50;;;3.00;99.90;;;;;;5068875;28;20939;-74
